ADDS METAR Data INFO
IDs: Format: Raw Decoded Include TAF

Data at: 1950 UTC 14 Aug 2018

KGVE 141935Z AUTO 24003KT 10SM CLR 29/18 A2994 RMK AO1 T02850177
KGVE 141915Z AUTO 28004KT 10SM CLR 28/18 A2995 RMK AO1 T02840183
KGVE 141855Z AUTO 29007KT 10SM CLR 28/19 A2996 RMK AO1 T02830190
KGVE 141835Z AUTO 18003KT 10SM CLR 28/19 A2996 RMK AO1 T02810191
KGVE 141815Z AUTO 22006KT 10SM SCT042 28/19 A2997 RMK AO1 T02820186
KGVE 141755Z AUTO 00000KT 10SM SCT042 28/18 A2997 RMK AO1 T02750179 10278 20181
KGVE 141735Z AUTO 00000KT 10SM CLR 27/18 A2998 RMK AO1 T02710177
KGVE 141715Z AUTO 00000KT 10SM CLR 27/18 A2998 RMK AO1 T02710177
KGVE 141655Z AUTO 00000KT 10SM CLR 27/17 A2998 RMK AO1 T02660169
KGVE 141635Z AUTO 26003KT 10SM CLR 27/18 A2999 RMK AO1 T02700176
KGVE 141615Z AUTO 00000KT 10SM CLR 26/17 A2999 RMK AO1 T02630169
KGVE 141555Z AUTO 32004KT 10SM CLR 26/18 A2999 RMK AO1 T02620175
KGVE 141535Z AUTO 27004KT 10SM CLR 26/18 A3000 RMK AO1 T02570184
KGVE 141515Z AUTO 00000KT 10SM CLR 25/19 A3000 RMK AO1 T02510192
KGVE 141455Z AUTO 00000KT 10SM CLR 25/18 A3000 RMK AO1 T02460179
KGVE 141435Z AUTO 28003KT 10SM CLR 25/17 A3000 RMK AO1 T02520171
KGVE 141415Z AUTO 30003KT 10SM CLR 26/19 A3000 RMK AO1 T02550188
KGVE 141355Z AUTO 00000KT 10SM CLR 24/19 A3000 RMK AO1 T02410194
KGVE 141335Z AUTO 00000KT 10SM CLR 24/20 A3000 RMK AO1 T02370198
KGVE 141315Z AUTO 22003KT 10SM CLR 22/19 A3000 RMK AO1 T02200193
KGVE 141255Z AUTO 00000KT 10SM CLR 21/19 A3000 RMK AO1 T02120191
KGVE 141235Z AUTO 22004KT 10SM CLR 20/19 A2999 RMK AO1 T01980185
KGVE 141215Z AUTO 10SM CLR 19/18 A2999 RMK AO1 T01920184
KGVE 141155Z AUTO 00000KT 10SM CLR 18/18 A2999 RMK AO1 70014 T01800180 10180 20148
KGVE 141135Z AUTO 00000KT 10SM CLR 17/17 A2998 RMK AO1 T01660166
KGVE 141115Z AUTO 00000KT 10SM CLR 16/16 A2998 RMK AO1 T01610161
KGVE 141055Z AUTO 00000KT 10SM CLR 15/15 A2998 RMK AO1 T01520152
KGVE 141035Z AUTO 00000KT 7SM CLR 15/15 A2997 RMK AO1 T01520152
KGVE 141015Z AUTO 00000KT 7SM CLR 15/15 A2996 RMK AO1 T01500150
KGVE 140955Z AUTO 00000KT 10SM CLR 15/15 A2996 RMK AO1 T01520152
KGVE 140935Z AUTO 00000KT 10SM CLR 16/16 A2995 RMK AO1 T01560156
KGVE 140915Z AUTO 00000KT 10SM CLR 16/16 A2994 RMK AO1 T01570157
KGVE 140855Z AUTO 00000KT 10SM CLR 16/16 A2994 RMK AO1 T01550155
KGVE 140835Z AUTO 00000KT 10SM CLR 16/16 A2994 RMK AO1 T01570157
KGVE 140815Z AUTO 00000KT 7SM CLR 16/16 A2994 RMK AO1 T01550155
KGVE 140755Z AUTO 00000KT 7SM CLR 16/16 A2995 RMK AO1 T01560156
KGVE 140735Z AUTO 00000KT 7SM CLR 16/16 A2995 RMK AO1 T01600160
KGVE 140715Z AUTO 00000KT 10SM CLR 16/16 A2995 RMK AO1 T01640164
KGVE 140655Z AUTO 00000KT 10SM CLR 16/16 A2996 RMK AO1 T01640164
KGVE 140635Z AUTO 29003KT 10SM CLR 17/17 A2997 RMK AO1 T01670167
KGVE 140615Z AUTO 31003KT 10SM CLR 18/18 A2997 RMK AO1 T01760176
KGVE 140555Z AUTO 00000KT 10SM CLR 17/17 A2997 RMK AO1 T01680168 10196 20168
KGVE 140535Z AUTO 00000KT 10SM CLR 17/17 A2997 RMK AO1 T01710171
KGVE 140515Z AUTO 23003KT 10SM CLR 17/17 A2997 RMK AO1 T01720172
KGVE 140455Z AUTO 00000KT 10SM CLR 17/17 A2997 RMK AO1 T01700170 402850170
KGVE 140435Z AUTO 24003KT 10SM CLR 18/18 A2997 RMK AO1 T01750175
KGVE 140415Z AUTO 24003KT 10SM CLR 18/18 A2998 RMK AO1 T01760176
KGVE 140355Z AUTO 20003KT 10SM CLR 18/18 A2998 RMK AO1 T01760176
KGVE 140335Z AUTO 18003KT 10SM CLR 18/18 A2997 RMK AO1 T01800180
KGVE 140315Z AUTO 24003KT 10SM CLR 18/18 A2997 RMK AO1 T01810181
KGVE 140255Z AUTO 23003KT 10SM CLR 18/18 A2997 RMK AO1 T01810181
KGVE 140235Z AUTO 00000KT 10SM CLR 18/18 A2996 RMK AO1 T01830183
KGVE 140215Z AUTO 00000KT 10SM CLR 19/19 A2997 RMK AO1 T01850185
KGVE 140155Z AUTO 00000KT 10SM CLR 19/19 A2997 RMK AO1 T01850185
KGVE 140135Z AUTO 00000KT 10SM CLR 19/19 A2997 RMK AO1 T01870187
KGVE 140115Z AUTO 00000KT 10SM SCT075 19/19 A2997 RMK AO1 T01900190
KGVE 140055Z AUTO 00000KT 10SM SCT075 19/19 A2998 RMK AO1 T01920192
KGVE 140035Z AUTO 00000KT 10SM SCT075 SCT110 20/20 A2999 RMK AO1 T01950195
KGVE 140015Z AUTO 23003KT 10SM SCT110 19/19 A2999 RMK AO1 T01940194
KGVE 132355Z AUTO 00000KT 10SM SCT120 20/20 A2999 RMK AO1 60014 T01950195 10285 20183
KGVE 132335Z AUTO 00000KT 10SM SCT120 20/20 A2997 RMK AO1 T01950195
KGVE 132315Z AUTO 23003KT 10SM SCT120 20/20 A2996 RMK AO1 T01950195
KGVE 132255Z AUTO 26003KT 10SM CLR 19/19 A2995 RMK AO1 T01930193
KGVE 132235Z AUTO 00000KT 10SM CLR 20/20 A2995 RMK AO1 T01950195
KGVE 132215Z AUTO 24004KT 10SM SCT026 SCT040 SCT070 19/19 A2995 RMK AO1 T01940194
KGVE 132155Z AUTO 20005KT 10SM SCT042 BKN100 OVC120 19/19 A2995 RMK AO1 P0012 T01930193
KGVE 132135Z AUTO 23004KT 10SM SCT037 SCT060 OVC110 18/18 A2996 RMK AO1 P0012 T01830183
KGVE 132115Z AUTO 32003KT 2SM BR SCT032 BKN060 OVC095 19/18 A2998 RMK AO1 VIS 3/4V5 P0011 T01860182
KGVE 132055Z AUTO 21009KT 7SM SCT025 BKN070 OVC090 20/18 A3000 RMK AO1 P0002 60002 T02040180
KGVE 132035Z AUTO 33005G14KT 10SM SCT042 BKN048 OVC060 22/18 A2997 RMK AO1 T02160181
KGVE 132015Z AUTO 33007G14KT 300V010 10SM OVC042 23/18 A2996 RMK AO1 T02300184
KGVE 131955Z AUTO 35008G14KT 310V020 10SM SCT040 SCT050 SCT065 25/19 A2995 RMK AO1 T02530191
KGVE 131935Z AUTO 00000KT 10SM SCT070 SCT110 28/21 A2995 RMK AO1 T02770209
KGVE 131915Z AUTO 21004KT 10SM CLR 28/21 A2995 RMK AO1 T02840208
KGVE 131855Z AUTO 21006KT 10SM CLR 28/20 A2996 RMK AO1 T02840204
KGVE 131835Z AUTO 21005KT 10SM SCT038 SCT050 28/21 A2996 RMK AO1 T02820210
KGVE 131815Z AUTO 00000KT 10SM CLR 28/21 A2997 RMK AO1 T02770206
KGVE 131755Z AUTO 15003KT 10SM SCT035 SCT041 28/22 A2998 RMK AO1 T02790217 10279 20192
KGVE 131735Z AUTO 00000KT 10SM BKN035 BKN044 BKN050 27/20 A2999 RMK AO1 T02740200
KGVE 131715Z AUTO 00000KT 10SM SCT035 BKN044 BKN050 27/21 A2999 RMK AO1 T02700208
KGVE 131655Z AUTO 00000KT 10SM BKN033 BKN044 27/20 A3000 RMK AO1 T02660201
KGVE 131635Z AUTO 33003KT 10SM SCT031 27/21 A3001 RMK AO1 T02710212
KGVE 131615Z AUTO 00000KT 10SM CLR 26/21 A3002 RMK AO1 T02630206
KGVE 131555Z AUTO 00000KT 10SM CLR 26/21 A3002 RMK AO1 T02640209
KGVE 131535Z AUTO 07003KT 10SM CLR 26/21 A3002 RMK AO1 T02600210
KGVE 131515Z AUTO 00000KT 10SM CLR 26/20 A3002 RMK AO1 T02560198
KGVE 131455Z AUTO 06003KT 10SM CLR 25/20 A3003 RMK AO1 T02510204
KGVE 131435Z AUTO 00000KT 10SM CLR 25/21 A3003 RMK AO1 T02490208
KGVE 131415Z AUTO 00000KT 10SM CLR 24/21 A3003 RMK AO1 T02430211
KGVE 131355Z AUTO 00000KT 10SM CLR 24/20 A3003 RMK AO1 T02380198
KGVE 131335Z AUTO 00000KT 10SM CLR 23/20 A3003 RMK AO1 T02300199
KGVE 131315Z AUTO 00000KT 10SM CLR 21/19 A3002 RMK AO1 T02140194
KGVE 131255Z AUTO 00000KT 10SM CLR 21/20 A3002 RMK AO1 T02130202
KGVE 131235Z AUTO 00000KT 10SM CLR 21/20 A3002 RMK AO1 T02090202
KGVE 131215Z AUTO 10SM CLR 20/20 A3001 RMK AO1 T02010201
KGVE 131155Z AUTO 20003KT 10SM CLR 19/19 A3001 RMK AO1 70048 T01890189 10195 20170
KGVE 131135Z AUTO 00000KT 7SM SCT003 18/18 A3001 RMK AO1 T01800180
KGVE 131115Z AUTO 00000KT 4SM BR CLR 18/18 A3001 RMK AO1 T01760176
KGVE 131055Z AUTO 00000KT 1/2SM FG VV005 17/17 A3001 RMK AO1 VIS 1/4V4 T01710171
KGVE 131035Z AUTO 00000KT 4SM BR CLR 18/18 A3001 RMK AO1 T01750175
KGVE 131015Z AUTO 00000KT 7SM CLR 18/18 A3001 RMK AO1 T01750175
KGVE 130955Z AUTO 00000KT 10SM SCT002 18/18 A3002 RMK AO1 T01750175
KGVE 130935Z AUTO 00000KT 3/4SM BR OVC002 17/17 A3002 RMK AO1 T01740174
KGVE 130915Z AUTO 00000KT 1/4SM FG OVC002 18/18 A3003 RMK AO1 T01770177
KGVE 130855Z AUTO 00000KT M1/4SM FG OVC002 18/18 A3002 RMK AO1 T01770177
KGVE 130835Z AUTO 00000KT 1/4SM FG OVC002 18/18 A3002 RMK AO1 T01770177
KGVE 130815Z AUTO 00000KT 1/2SM FG OVC002 18/18 A3002 RMK AO1 VIS 1/4V1 3/4 T01800180
KGVE 130755Z AUTO 00000KT 5SM BR CLR 18/18 A3002 RMK AO1 T01820182